Terminal Aerodrome Forecast
Issued by NWS

Home | Current Version | Previous Version | Text Only | Print | Product List | Glossary On
Versions: 1 2 3 4 5 6 7 8 9 10 11 12 13 14 15 16
052
FTUS43 KFGF 310128 AAA
TAFDVL
TAF AMD
KDVL 310128Z 3101/3124 16014KT P6SM SCT080
     FM310400 16009KT P6SM SCT100
     FM311600 16013KT P6SM SCT100=

USA.gov is the U.S. government's official web portal to all federal, state and local government web resources and services.